Time;durP1;ratioP1;P1;durP2;ratioP2;P2;SDS_P1;SDS_P2;PMS_P1;PMS_P2;Temp;Humidity;BMP_temperature;BMP_pressure;BME280_temperature;BME280_humidity;BME280_pressure;Samples;Min_cycle;Max_cycle;Signal;HPM_P1;HPM_P2
2022/03/31 00:01:23;;;;;;;19.40;14.00;;;;;;;7.60;49.37;98292.75;10273901;28;20043;-74
2022/03/31 00:06:25;;;;;;;21.00;13.75;;;;;;;7.70;49.24;98295.50;10265690;28;20070;-74
2022/03/31 00:11:27;;;;;;;20.58;13.73;;;;;;;7.53;49.27;98288.94;10265531;28;20145;-74
2022/03/31 00:16:29;;;;;;;17.92;12.75;;;;;;;7.43;49.43;98282.75;10247542;28;20575;-74
2022/03/31 00:21:30;;;;;;;22.50;14.13;;;;;;;7.44;49.67;98279.22;10247294;28;20054;-74
2022/03/31 00:26:32;;;;;;;20.23;13.63;;;;;;;7.51;49.10;98270.00;10264739;28;20050;-74
2022/03/31 00:31:34;;;;;;;21.15;13.98;;;;;;;7.38;49.36;98279.66;10280437;28;20101;-74
2022/03/31 00:36:36;;;;;;;22.92;14.25;;;;;;;7.32;49.48;98274.91;10267728;28;21024;-74
2022/03/31 00:41:39;;;;;;;20.20;14.30;;;;;;;7.29;49.29;98275.13;10284753;28;20145;-74
2022/03/31 00:46:52;;;;;;;20.55;14.18;;;;;;;7.31;49.57;98278.44;10286050;28;20101;-74
2022/03/31 00:51:55;;;;;;;24.48;14.80;;;;;;;7.04;49.76;98264.84;10272321;28;20394;-74
2022/03/31 00:56:57;;;;;;;21.80;14.73;;;;;;;7.14;49.77;98260.66;10271594;28;20730;-74
2022/03/31 01:02:01;;;;;;;22.42;14.73;;;;;;;7.11;49.74;98260.84;10271996;28;20050;-75
2022/03/31 01:07:03;;;;;;;23.65;15.70;;;;;;;7.08;49.89;98251.50;10254709;28;20061;-74
2022/03/31 01:12:05;;;;;;;24.38;15.50;;;;;;;6.80;50.03;98251.81;10283815;28;20086;-75
2022/03/31 01:17:07;;;;;;;24.42;14.70;;;;;;;6.69;50.75;98259.56;10270089;28;20656;-74
2022/03/31 01:22:11;;;;;;;23.35;15.25;;;;;;;6.73;50.59;98254.97;10271890;28;20055;-74
2022/03/31 01:27:13;;;;;;;21.40;15.63;;;;;;;6.74;50.55;98251.41;10281443;28;20153;-74
2022/03/31 01:32:14;;;;;;;24.58;15.32;;;;;;;6.74;50.66;98246.22;10281677;28;20138;-74
2022/03/31 01:37:16;;;;;;;21.17;14.95;;;;;;;6.93;50.84;98242.22;10293033;28;20055;-75
2022/03/31 01:42:18;;;;;;;22.08;15.68;;;;;;;7.05;50.56;98238.75;10269452;28;20233;-74
2022/03/31 01:47:20;;;;;;;25.23;16.40;;;;;;;6.98;50.55;98226.28;10280810;28;20133;-74
2022/03/31 01:52:22;;;;;;;23.10;15.52;;;;;;;6.91;50.40;98218.13;10270168;28;21017;-75
2022/03/31 01:57:23;;;;;;;22.55;15.82;;;;;;;6.73;50.38;98218.59;10261749;28;20138;-75
2022/03/31 02:02:25;;;;;;;24.30;16.17;;;;;;;6.49;51.14;98217.72;10276335;28;20050;-74
2022/03/31 02:07:28;;;;;;;23.83;15.38;;;;;;;6.57;51.04;98211.03;10291766;28;20916;-74
2022/03/31 02:12:29;;;;;;;22.67;14.98;;;;;;;6.56;51.32;98216.34;10276631;28;20105;-74
2022/03/31 02:17:32;;;;;;;24.33;15.98;;;;;;;6.49;51.01;98204.75;10275861;28;20086;-75
2022/03/31 02:22:34;;;;;;;22.98;16.23;;;;;;;6.47;51.34;98209.22;10289222;28;20532;-74
2022/03/31 02:27:36;;;;;;;26.83;16.95;;;;;;;6.31;51.47;98202.50;10282153;28;20111;-74
2022/03/31 02:32:38;;;;;;;23.70;15.95;;;;;;;6.05;51.71;98194.81;10258468;28;20104;-75
2022/03/31 02:37:40;;;;;;;23.55;16.00;;;;;;;5.79;52.23;98188.81;10264956;28;20476;-75
2022/03/31 02:42:42;;;;;;;23.15;16.38;;;;;;;5.75;52.71;98181.34;10290888;28;20062;-74
2022/03/31 02:47:47;;;;;;;23.55;16.08;;;;;;;5.80;52.88;98181.88;10282552;28;20180;-74
2022/03/31 02:58:09;;;;;;;23.37;15.87;;;;;;;5.58;52.75;98169.50;10274850;28;20105;-74
2022/03/31 03:03:11;;;;;;;26.08;16.27;;;;;;;5.66;52.93;98171.59;10272696;28;20124;-74
2022/03/31 03:08:15;;;;;;;25.35;17.15;;;;;;;5.84;52.55;98154.78;10269591;28;20069;-74
2022/03/31 03:13:17;;;;;;;25.02;17.55;;;;;;;5.62;52.88;98149.38;10287424;28;20133;-74
2022/03/31 03:18:20;;;;;;;28.77;17.58;;;;;;;5.43;53.49;98149.81;10250508;28;20050;-74
2022/03/31 03:23:21;;;;;;;28.05;17.70;;;;;;;5.32;53.76;98142.75;10297964;28;20554;-74
2022/03/31 03:28:23;;;;;;;25.80;17.73;;;;;;;5.28;53.82;98132.69;10271699;28;20090;-74
2022/03/31 03:39:47;;;;;;;25.17;16.95;;;;;;;5.27;54.03;98131.03;10266492;28;20149;-74
2022/03/31 03:44:48;;;;;;;27.52;17.55;;;;;;;5.42;53.79;98130.84;10278639;28;20817;-74
2022/03/31 03:49:50;;;;;;;25.83;17.63;;;;;;;5.53;53.73;98132.72;10270362;28;21114;-75
2022/03/31 03:54:52;;;;;;;25.75;17.00;;;;;;;5.39;53.90;98128.44;10284624;28;20453;-75
2022/03/31 03:59:54;;;;;;;24.45;16.98;;;;;;;5.20;54.26;98132.38;10260924;28;20078;-75
2022/03/31 04:04:56;;;;;;;25.13;18.33;;;;;;;5.19;54.16;98128.94;10275598;28;20078;-75
2022/03/31 04:09:58;;;;;;;29.08;18.00;;;;;;;5.16;54.31;98128.31;10294627;28;20062;-75
2022/03/31 04:15:02;;;;;;;26.63;18.30;;;;;;;5.13;54.55;98129.34;10265154;28;20149;-75
2022/03/31 04:20:04;;;;;;;25.73;18.00;;;;;;;4.98;54.69;98130.38;10273874;28;20511;-75
2022/03/31 04:25:08;;;;;;;27.67;17.55;;;;;;;5.21;54.53;98134.03;10268935;28;20063;-75
2022/03/31 04:30:11;;;;;;;28.73;18.58;;;;;;;5.35;54.33;98128.78;10259141;28;20051;-75
2022/03/31 04:35:14;;;;;;;26.73;17.90;;;;;;;5.23;54.53;98121.78;10271471;28;20055;-75
2022/03/31 04:40:15;;;;;;;27.70;17.98;;;;;;;5.20;54.60;98127.19;10282689;28;20077;-75
2022/03/31 04:45:17;;;;;;;29.90;19.30;;;;;;;5.45;54.34;98116.84;10281727;28;20055;-75
2022/03/31 04:50:19;;;;;;;24.80;17.48;;;;;;;5.47;54.34;98123.56;10275524;28;20433;-75
2022/03/31 04:55:21;;;;;;;28.83;19.42;;;;;;;5.46;54.30;98134.88;10272716;28;20145;-75
2022/03/31 05:00:23;;;;;;;30.50;19.60;;;;;;;5.47;54.03;98135.72;10248074;28;20148;-75
2022/03/31 05:05:25;;;;;;;26.17;18.58;;;;;;;5.42;54.22;98135.19;10264855;28;20067;-75
2022/03/31 05:10:27;;;;;;;28.52;19.27;;;;;;;5.35;54.30;98126.19;10264549;28;20054;-75
2022/03/31 05:15:29;;;;;;;27.23;18.30;;;;;;;5.56;54.36;98135.09;10272732;28;20508;-75
2022/03/31 05:20:35;;;;;;;31.92;19.20;;;;;;;5.45;54.45;98135.81;10268267;28;20362;-75
2022/03/31 05:25:37;;;;;;;25.23;17.73;;;;;;;5.26;54.72;98131.97;10276036;28;20130;-75
2022/03/31 05:30:39;;;;;;;32.40;19.83;;;;;;;5.18;54.49;98123.88;10266344;28;20054;-75
2022/03/31 05:35:41;;;;;;;28.42;18.70;;;;;;;5.30;54.30;98123.06;10271530;28;20127;-75
2022/03/31 05:40:43;;;;;;;29.48;19.13;;;;;;;5.40;54.12;98118.91;10271388;28;20042;-75
2022/03/31 05:45:44;;;;;;;29.73;19.42;;;;;;;5.32;54.08;98114.25;10288800;28;20116;-75
2022/03/31 05:50:46;;;;;;;28.15;19.02;;;;;;;5.21;54.24;98118.47;10266716;28;20051;-75
2022/03/31 05:55:48;;;;;;;27.55;18.88;;;;;;;5.25;54.41;98118.16;10285130;28;20082;-75
2022/03/31 06:00:53;;;;;;;30.52;18.77;;;;;;;5.36;54.20;98123.47;10289503;28;20047;-75
2022/03/31 06:05:55;;;;;;;28.70;18.92;;;;;;;5.30;54.00;98134.25;10276274;28;20421;-75
2022/03/31 06:10:57;;;;;;;28.73;18.88;;;;;;;5.54;53.42;98129.16;10266772;28;20145;-75
2022/03/31 06:15:59;;;;;;;32.00;18.90;;;;;;;5.92;52.80;98124.78;10284029;28;20086;-75
2022/03/31 06:21:01;;;;;;;28.98;19.15;;;;;;;6.33;52.38;98133.13;10255441;28;20098;-74
2022/03/31 06:26:03;;;;;;;26.42;18.63;;;;;;;6.51;51.82;98120.56;10271567;28;20133;-75
2022/03/31 06:31:05;;;;;;;25.92;18.17;;;;;;;6.76;51.12;98117.03;10263603;28;20082;-75
2022/03/31 06:36:08;;;;;;;28.92;18.25;;;;;;;6.72;50.76;98118.19;10271685;28;20146;-75
2022/03/31 06:41:10;;;;;;;26.50;17.65;;;;;;;6.34;51.20;98110.59;10258123;28;20137;-75
2022/03/31 06:46:14;;;;;;;27.55;17.83;;;;;;;6.08;51.89;98120.16;10269182;28;20470;-78
2022/03/31 06:51:17;;;;;;;30.67;18.17;;;;;;;6.36;51.07;98124.28;10280574;28;20055;-78
2022/03/31 06:56:19;;;;;;;31.23;18.42;;;;;;;6.31;51.16;98129.81;10268989;28;20050;-78
2022/03/31 07:01:21;;;;;;;30.98;18.33;;;;;;;6.63;50.73;98134.47;10272982;28;20046;-78
2022/03/31 07:06:24;;;;;;;26.02;18.10;;;;;;;6.91;50.38;98129.75;10283279;28;21131;-78
2022/03/31 07:11:26;;;;;;;28.70;18.52;;;;;;;6.91;50.22;98134.13;10284271;28;21213;-78
2022/03/31 07:16:29;;;;;;;29.92;18.92;;;;;;;6.89;50.21;98130.81;10275442;28;20491;-78
2022/03/31 07:21:30;;;;;;;31.58;18.98;;;;;;;6.42;51.13;98136.00;10276903;28;20086;-78
2022/03/31 07:26:32;;;;;;;28.25;19.42;;;;;;;6.41;51.23;98129.16;10283263;28;20055;-78
2022/03/31 07:31:34;;;;;;;26.83;18.80;;;;;;;6.12;51.42;98134.59;10284746;28;20144;-78
2022/03/31 07:36:36;;;;;;;31.23;20.17;;;;;;;6.33;51.32;98122.72;10293175;28;20490;-78
2022/03/31 07:41:38;;;;;;;30.40;19.80;;;;;;;6.23;51.45;98116.50;10288679;28;20243;-78
2022/03/31 07:46:40;;;;;;;28.20;19.05;;;;;;;6.33;51.36;98116.69;10284162;28;20057;-78
2022/03/31 07:51:42;;;;;;;31.33;19.23;;;;;;;6.13;51.72;98112.91;10278762;28;20078;-78
2022/03/31 07:56:43;;;;;;;28.40;19.00;;;;;;;5.97;52.40;98107.13;10274018;28;20082;-78
2022/03/31 08:01:45;;;;;;;31.50;20.92;;;;;;;5.89;52.53;98101.66;10262830;28;20286;-78
2022/03/31 08:06:50;;;;;;;32.15;20.77;;;;;;;6.40;51.95;98110.16;10272977;28;20063;-78
2022/03/31 08:11:52;;;;;;;28.60;19.67;;;;;;;6.18;52.32;98094.41;10276321;28;20054;-78
2022/03/31 08:16:55;;;;;;;27.67;19.88;;;;;;;6.23;52.06;98090.53;10269684;28;20050;-78
2022/03/31 08:22:00;;;;;;;33.85;19.38;;;;;;;6.33;51.97;98088.97;10278485;28;20058;-78
2022/03/31 08:27:52;;;;;;;28.98;19.95;;;;;;;6.46;51.38;98091.53;10278270;28;20058;-78
2022/03/31 08:32:54;;;;;;;28.10;18.77;;;;;;;6.45;51.81;98102.03;10281479;28;20050;-78
2022/03/31 08:37:56;;;;;;;28.80;19.55;;;;;;;6.49;51.96;98101.69;10282466;28;20058;-79
2022/03/31 08:42:59;;;;;;;27.95;20.05;;;;;;;6.14;52.18;98100.75;10288939;28;20540;-78
2022/03/31 08:48:03;;;;;;;28.33;19.08;;;;;;;6.33;51.95;98098.53;10288874;28;20133;-78
2022/03/31 08:53:05;;;;;;;28.20;19.63;;;;;;;6.52;51.66;98111.88;10283283;28;20137;-78
2022/03/31 08:58:08;;;;;;;26.33;18.40;;;;;;;6.63;51.25;98106.72;10276474;28;20110;-78
2022/03/31 09:03:11;;;;;;;25.90;19.05;;;;;;;7.29;50.62;98100.06;10287267;28;20102;-77
2022/03/31 09:08:16;;;;;;;29.40;19.17;;;;;;;7.29;50.27;98098.31;10277334;28;20055;-78
2022/03/31 09:13:19;;;;;;;25.35;18.65;;;;;;;7.40;50.00;98094.91;10294064;28;21142;-77
2022/03/31 09:18:22;;;;;;;28.20;19.33;;;;;;;7.57;49.45;98099.66;10287776;28;20142;-78
2022/03/31 09:23:28;;;;;;;25.27;18.17;;;;;;;7.71;49.20;98109.84;10279319;28;20055;-78
2022/03/31 09:28:37;;;;;;;27.70;18.58;;;;;;;7.97;48.43;98099.06;10288173;28;20512;-78
2022/03/31 09:33:45;;;;;;;27.80;18.23;;;;;;;8.07;48.09;98095.72;10284647;28;20054;-78
2022/03/31 09:39:02;;;;;;;24.52;17.70;;;;;;;8.12;47.51;98099.66;10277923;28;20145;-78
2022/03/31 09:44:07;;;;;;;25.92;17.85;;;;;;;8.07;47.97;98111.34;10294638;28;20061;-78
2022/03/31 09:49:14;;;;;;;27.88;17.40;;;;;;;8.36;47.50;98107.31;10277745;28;20148;-78
2022/03/31 09:54:17;;;;;;;24.15;17.88;;;;;;;8.68;47.10;98098.56;10271082;28;20062;-79
2022/03/31 09:59:19;;;;;;;24.98;17.30;;;;;;;8.66;46.65;98089.22;10284507;28;20140;-81
2022/03/31 10:04:28;;;;;;;26.30;18.95;;;;;;;8.34;47.08;98085.78;10291288;28;20508;-81
2022/03/31 10:09:32;;;;;;;24.48;17.13;;;;;;;8.29;47.55;98093.09;10295219;28;21021;-81
2022/03/31 10:14:52;;;;;;;24.05;17.73;;;;;;;8.88;46.31;98083.91;10292829;28;20105;-80
2022/03/31 10:20:07;;;;;;;24.95;17.88;;;;;;;8.53;46.79;98088.53;10285374;28;20046;-82
2022/03/31 10:25:11;;;;;;;24.10;18.15;;;;;;;8.79;46.67;98079.47;10295684;28;20550;-81
2022/03/31 10:30:27;;;;;;;27.52;18.27;;;;;;;8.93;46.04;98071.34;10295145;28;20145;-82
2022/03/31 10:35:33;;;;;;;28.13;18.58;;;;;;;8.89;45.64;98066.50;10292255;28;20137;-82
2022/03/31 10:40:40;;;;;;;24.20;18.85;;;;;;;9.06;45.79;98061.53;10296315;28;20098;-82
2022/03/31 10:45:48;;;;;;;22.55;17.90;;;;;;;9.44;45.19;98063.56;10296440;28;20094;-82
2022/03/31 10:51:04;;;;;;;24.92;18.50;;;;;;;9.77;44.49;98054.66;10295281;28;20488;-82
2022/03/31 10:56:24;;;;;;;25.73;18.70;;;;;;;9.35;44.78;98052.09;10290413;28;20057;-82
2022/03/31 11:01:32;;;;;;;25.90;18.58;;;;;;;9.13;45.67;98051.41;10272858;28;20140;-81
2022/03/31 11:06:48;;;;;;;26.27;18.42;;;;;;;9.20;45.28;98044.75;10291648;28;20058;-81
2022/03/31 11:11:55;;;;;;;25.98;18.40;;;;;;;9.11;45.95;98040.28;10275745;28;20046;-82
2022/03/31 11:17:17;;;;;;;24.85;19.00;;;;;;;8.92;46.05;98037.56;10291843;28;20138;-82
2022/03/31 11:23:18;;;;;;;25.17;18.85;;;;;;;9.13;45.81;98039.22;10289564;28;20054;-81
2022/03/31 11:28:21;;;;;;;25.17;18.75;;;;;;;9.10;46.31;98034.25;10289455;28;20141;-82
2022/03/31 11:33:34;;;;;;;28.27;19.05;;;;;;;9.18;45.89;98031.00;10289451;28;20105;-82
2022/03/31 11:38:36;;;;;;;25.63;18.80;;;;;;;8.95;45.87;98034.69;10290083;28;20150;-81
2022/03/31 11:43:38;;;;;;;26.23;18.48;;;;;;;8.82;46.21;98029.66;10273729;28;20140;-81
2022/03/31 11:48:44;;;;;;;24.83;18.70;;;;;;;8.57;46.78;98019.59;10293668;28;20128;-82
2022/03/31 11:53:47;;;;;;;26.63;18.50;;;;;;;8.66;46.69;98018.84;10292156;28;20050;-82
2022/03/31 11:58:55;;;;;;;26.27;18.88;;;;;;;8.76;46.86;98011.94;10294652;28;20085;-82
2022/03/31 12:03:57;;;;;;;24.23;18.30;;;;;;;9.00;46.47;98009.88;10276793;28;20393;-81
2022/03/31 12:09:02;;;;;;;26.65;19.05;;;;;;;8.60;46.84;98017.59;10294028;28;20050;-82
2022/03/31 12:14:04;;;;;;;24.63;18.80;;;;;;;8.73;47.23;98009.56;10291330;28;20110;-82
2022/03/31 12:19:10;;;;;;;23.92;18.48;;;;;;;8.72;47.27;98011.38;10293151;28;20436;-82
2022/03/31 12:24:13;;;;;;;25.48;18.58;;;;;;;8.96;46.65;98005.88;10276088;28;20082;-82
2022/03/31 12:29:16;;;;;;;24.08;18.08;;;;;;;8.83;46.75;98006.06;10291583;28;20058;-82
2022/03/31 12:34:18;;;;;;;25.23;18.90;;;;;;;9.46;46.59;98005.03;10289739;28;20058;-83
2022/03/31 12:39:20;;;;;;;26.48;19.65;;;;;;;9.29;45.98;98005.66;10292285;28;20058;-82
2022/03/31 12:44:25;;;;;;;27.55;20.50;;;;;;;9.42;46.51;98002.84;10300492;28;20113;-82
2022/03/31 12:49:38;;;;;;;28.25;20.90;;;;;;;9.53;46.39;98007.94;10299598;28;20055;-83
2022/03/31 12:54:56;;;;;;;28.48;21.02;;;;;;;9.16;46.78;97999.81;10298724;28;20565;-82
2022/03/31 13:00:07;;;;;;;30.27;21.17;;;;;;;9.33;47.17;97995.78;10298414;28;20108;-82
2022/03/31 13:05:23;;;;;;;26.33;20.52;;;;;;;9.11;47.48;97993.34;10296736;28;20066;-81
2022/03/31 13:10:26;;;;;;;28.25;20.98;;;;;;;9.20;46.96;97995.19;10287373;28;20109;-82
2022/03/31 13:15:28;;;;;;;25.92;19.58;;;;;;;9.03;47.59;97987.97;10291854;28;20093;-81
2022/03/31 13:20:32;;;;;;;29.95;20.45;;;;;;;8.57;48.60;97996.97;10295709;28;20142;-82
2022/03/31 13:25:35;;;;;;;25.27;19.30;;;;;;;8.25;49.09;97985.75;10293055;28;20050;-82
2022/03/31 13:30:37;;;;;;;27.85;19.10;;;;;;;8.54;49.77;97986.84;10294489;28;20129;-81
2022/03/31 13:35:39;;;;;;;30.23;21.08;;;;;;;8.69;49.29;97976.91;10278599;28;20061;-82
2022/03/31 13:40:41;;;;;;;28.02;20.48;;;;;;;8.50;50.13;97976.78;10293839;28;21318;-81
2022/03/31 13:45:43;;;;;;;26.45;19.83;;;;;;;8.41;51.04;97977.53;10295847;28;20508;-81
2022/03/31 13:50:45;;;;;;;29.83;21.15;;;;;;;8.55;51.26;97975.44;10294529;28;20134;-82
2022/03/31 13:55:47;;;;;;;25.23;19.30;;;;;;;8.43;52.06;97979.06;10295169;28;20050;-83
2022/03/31 14:01:10;;;;;;;27.75;19.08;;;;;;;8.08;51.25;97968.03;10293828;28;20117;-83
2022/03/31 14:06:16;;;;;;;27.83;19.77;;;;;;;8.10;52.30;97970.53;10256296;28;1199183;-83
2022/03/31 14:11:21;;;;;;;28.27;19.58;;;;;;;8.00;52.23;97962.63;10284959;28;20122;-83
2022/03/31 14:16:27;;;;;;;28.20;20.95;;;;;;;7.96;52.91;97967.25;10294042;28;20066;-83
2022/03/31 14:21:29;;;;;;;27.52;19.75;;;;;;;7.85;52.94;97975.06;10292619;28;20055;-83
2022/03/31 14:26:31;;;;;;;25.63;18.92;;;;;;;7.76;53.27;97967.19;10296060;28;20086;-83
2022/03/31 14:31:33;;;;;;;27.50;19.50;;;;;;;7.76;53.87;97973.22;10296146;28;20399;-83
2022/03/31 14:36:38;;;;;;;24.70;19.00;;;;;;;7.76;54.59;97967.19;10296413;28;20054;-84
2022/03/31 14:41:43;;;;;;;27.77;18.52;;;;;;;7.85;54.27;97963.84;10294733;28;20047;-83
2022/03/31 14:46:46;;;;;;;25.33;18.13;;;;;;;7.94;54.35;97961.34;10295360;28;20516;-83
2022/03/31 14:51:48;;;;;;;24.75;18.08;;;;;;;8.07;54.80;97968.16;10297108;28;20082;-83
2022/03/31 14:56:50;;;;;;;22.55;18.23;;;;;;;8.11;54.69;97967.00;10294612;28;20094;-83
2022/03/31 15:01:52;;;;;;;22.60;16.60;;;;;;;7.90;53.92;97969.50;10294773;28;20082;-83
2022/03/31 15:06:55;;;;;;;21.75;16.33;;;;;;;7.61;54.34;97968.41;10294151;28;20089;-83
2022/03/31 15:17:18;;;;;;;20.40;15.57;;;;;;;7.15;55.27;97976.34;10293532;28;20046;-83
2022/03/31 15:22:20;;;;;;;21.20;16.45;;;;;;;7.10;56.22;97970.69;10295357;28;20057;-83
2022/03/31 15:27:22;;;;;;;21.52;16.08;;;;;;;6.99;56.11;97981.88;10298977;28;20046;-83
2022/03/31 15:32:26;;;;;;;24.17;17.50;;;;;;;6.92;55.81;97974.66;10292694;28;20378;-83
2022/03/31 15:37:28;;;;;;;24.05;17.58;;;;;;;6.85;56.31;97981.28;10294115;28;20187;-83
2022/03/31 15:42:31;;;;;;;24.85;18.63;;;;;;;6.86;56.64;97975.13;10293895;28;20090;-83
2022/03/31 15:47:33;;;;;;;25.80;18.00;;;;;;;6.97;56.56;97973.38;10293594;28;20058;-83
2022/03/31 15:52:41;;;;;;;26.13;19.10;;;;;;;7.04;56.30;97974.56;10294320;28;20046;-83
2022/03/31 15:57:43;;;;;;;31.38;20.90;;;;;;;7.07;56.79;97973.50;10293215;28;20420;-84
2022/03/31 16:02:45;;;;;;;26.48;19.63;;;;;;;7.13;56.57;97978.22;10292478;28;20458;-84
2022/03/31 16:07:48;;;;;;;28.13;21.05;;;;;;;6.88;56.92;97991.41;10273597;28;20078;-84
2022/03/31 16:12:50;;;;;;;33.42;22.95;;;;;;;6.53;58.42;97993.25;10289796;28;20057;-83
2022/03/31 16:17:53;;;;;;;34.00;23.08;;;;;;;6.63;58.17;97991.63;10284965;28;20451;-84
2022/03/31 16:28:32;;;;;;;31.50;22.95;;;;;;;6.47;57.96;98004.09;10284601;28;20060;-83
2022/03/31 16:33:35;;;;;;;35.88;24.38;;;;;;;6.55;58.69;98002.56;10268557;28;20451;-83
2022/03/31 16:38:39;;;;;;;37.55;24.02;;;;;;;6.50;58.38;98011.63;10270354;28;20053;-83
2022/03/31 16:43:42;;;;;;;36.58;25.02;;;;;;;6.49;58.35;98013.38;10285098;28;20042;-83
2022/03/31 16:48:46;;;;;;;35.28;23.80;;;;;;;6.45;58.70;98026.75;10282590;28;20101;-83
2022/03/31 16:53:48;;;;;;;33.70;23.50;;;;;;;6.55;58.41;98022.53;10285444;28;20046;-84
2022/03/31 16:58:50;;;;;;;32.42;23.80;;;;;;;6.60;58.90;98023.00;10282873;28;20054;-83
2022/03/31 17:03:53;;;;;;;33.40;23.23;;;;;;;6.56;58.85;98024.16;10287761;28;20061;-83
2022/03/31 17:08:56;;;;;;;31.80;22.92;;;;;;;6.63;58.73;98034.00;10283187;28;20105;-83
2022/03/31 17:13:58;;;;;;;28.63;21.70;;;;;;;6.68;58.63;98037.09;10288921;28;20152;-83
2022/03/31 17:19:00;;;;;;;32.38;23.00;;;;;;;6.47;58.66;98051.63;10286896;28;20571;-83
2022/03/31 17:24:03;;;;;;;27.35;19.70;;;;;;;6.27;58.78;98055.69;10275134;28;20142;-84
2022/03/31 17:29:05;;;;;;;28.95;20.77;;;;;;;6.20;59.03;98054.44;10293213;28;20134;-84
2022/03/31 17:34:07;;;;;;;24.77;18.83;;;;;;;6.37;58.35;98060.22;10287246;28;20509;-84
2022/03/31 17:39:09;;;;;;;29.30;19.50;;;;;;;6.22;58.17;98068.13;10296161;28;20090;-83
2022/03/31 17:44:11;;;;;;;26.33;18.55;;;;;;;5.85;58.95;98078.63;10294049;28;20082;-85
2022/03/31 17:49:13;;;;;;;26.00;20.08;;;;;;;5.83;59.26;98081.31;10296705;28;20467;-84
2022/03/31 17:54:15;;;;;;;27.35;20.75;;;;;;;6.03;59.14;98078.16;10300504;28;20059;-84
2022/03/31 17:59:17;;;;;;;29.73;21.60;;;;;;;6.06;59.53;98085.72;10297940;28;20401;-83
2022/03/31 18:04:20;;;;;;;29.60;22.20;;;;;;;6.07;59.58;98092.56;10294357;28;20110;-83
2022/03/31 18:09:22;;;;;;;31.58;23.52;;;;;;;5.95;59.79;98098.63;10297801;28;20117;-83
2022/03/31 18:14:24;;;;;;;29.27;22.23;;;;;;;6.07;60.18;98109.91;10292267;28;20350;-83
2022/03/31 18:19:26;;;;;;;31.90;23.45;;;;;;;6.06;60.53;98106.47;10290869;28;20051;-84
2022/03/31 18:24:28;;;;;;;29.85;22.40;;;;;;;6.06;60.74;98114.25;10291844;28;20042;-84
2022/03/31 18:34:56;;;;;;;29.35;23.23;;;;;;;5.63;61.48;98125.97;10292754;28;20054;-83
2022/03/31 18:39:58;;;;;;;33.10;24.30;;;;;;;5.64;61.13;98127.63;10281017;28;20141;-84
2022/03/31 18:45:00;;;;;;;32.03;23.73;;;;;;;5.45;61.41;98130.63;10295016;28;20085;-83
2022/03/31 18:50:03;;;;;;;29.50;22.83;;;;;;;5.50;61.25;98136.34;10292180;28;20082;-84
2022/03/31 18:55:06;;;;;;;31.70;23.40;;;;;;;5.53;61.61;98140.50;10293805;28;20101;-84
2022/03/31 19:00:10;;;;;;;39.45;25.67;;;;;;;5.71;61.92;98154.81;10290603;28;20090;-85
2022/03/31 19:05:12;;;;;;;29.75;23.90;;;;;;;5.64;61.60;98161.31;10295681;28;20118;-84
2022/03/31 19:10:15;;;;;;;31.45;22.77;;;;;;;5.54;61.28;98163.72;10292849;28;20081;-84
2022/03/31 19:15:17;;;;;;;28.75;22.10;;;;;;;5.23;61.34;98171.03;10278203;28;20120;-84
2022/03/31 19:20:20;;;;;;;26.35;20.35;;;;;;;5.05;61.57;98167.88;10295281;28;20058;-84
2022/03/31 19:25:22;;;;;;;27.15;19.98;;;;;;;4.72;62.26;98171.84;10294005;28;20099;-84
2022/03/31 19:30:24;;;;;;;26.25;19.58;;;;;;;4.66;62.33;98173.88;10292322;28;20083;-84
2022/03/31 19:35:27;;;;;;;25.10;20.23;;;;;;;4.70;62.52;98180.53;10292586;28;20109;-83
2022/03/31 19:40:29;;;;;;;26.30;20.02;;;;;;;4.77;61.94;98186.16;10288742;28;20409;-83
2022/03/31 19:45:31;;;;;;;27.13;21.17;;;;;;;4.73;61.99;98179.50;10286212;28;20067;-83
2022/03/31 19:50:33;;;;;;;27.13;20.67;;;;;;;4.89;62.44;98184.53;10288865;28;20465;-84
2022/03/31 19:55:35;;;;;;;28.48;21.15;;;;;;;4.83;62.15;98190.09;10271452;28;20946;-84
2022/03/31 20:00:37;;;;;;;27.83;21.67;;;;;;;4.71;62.29;98186.53;10289011;28;20093;-84
2022/03/31 20:05:39;;;;;;;29.23;22.63;;;;;;;4.65;62.56;98187.78;10292538;28;20061;-84
2022/03/31 20:10:50;;;;;;;27.92;22.27;;;;;;;4.73;62.38;98195.03;10293457;28;20781;-83
2022/03/31 20:15:52;;;;;;;28.48;22.75;;;;;;;4.67;61.92;98193.69;10275973;28;20061;-84
2022/03/31 20:20:54;;;;;;;28.02;21.85;;;;;;;4.65;62.12;98198.13;10292592;28;20115;-85
2022/03/31 20:25:56;;;;;;;30.60;22.75;;;;;;;4.50;62.26;98193.91;10289283;28;20507;-84
2022/03/31 20:30:59;;;;;;;30.00;23.13;;;;;;;4.49;62.54;98192.25;10291067;28;20046;-84
2022/03/31 20:36:02;;;;;;;27.40;22.23;;;;;;;4.40;62.42;98194.56;10290127;28;20059;-84
2022/03/31 20:41:04;;;;;;;25.85;20.70;;;;;;;4.50;62.04;98198.25;10290174;28;20720;-84
2022/03/31 20:46:06;;;;;;;27.30;21.45;;;;;;;4.36;62.50;98190.50;10294412;28;20078;-84
2022/03/31 20:51:08;;;;;;;29.30;22.15;;;;;;;4.54;62.94;98189.34;10292428;28;20049;-84
2022/03/31 20:56:10;;;;;;;27.27;21.63;;;;;;;4.70;62.30;98185.69;10292119;28;20054;-83
2022/03/31 21:01:15;;;;;;;30.00;24.00;;;;;;;4.72;62.82;98192.56;10294606;28;20142;-84
2022/03/31 21:06:17;;;;;;;27.90;21.95;;;;;;;4.51;62.30;98190.41;10300006;28;20062;-84
2022/03/31 21:11:20;;;;;;;23.25;19.30;;;;;;;4.11;62.82;98191.19;10300003;28;20085;-84
2022/03/31 21:16:21;;;;;;;23.98;20.33;;;;;;;3.96;63.07;98194.72;10299322;28;20588;-83
2022/03/31 21:21:23;;;;;;;23.50;20.40;;;;;;;4.14;62.90;98200.53;10299207;28;20054;-84
2022/03/31 21:26:26;;;;;;;23.73;19.65;;;;;;;4.01;62.41;98190.09;10299431;28;20062;-84
2022/03/31 21:31:27;;;;;;;21.00;18.42;;;;;;;3.90;62.51;98195.09;10298213;28;20097;-84
2022/03/31 21:36:29;;;;;;;20.48;17.85;;;;;;;3.91;62.52;98193.31;10297334;28;20113;-84
2022/03/31 21:41:31;;;;;;;22.70;19.40;;;;;;;4.01;62.71;98195.25;10298304;28;20110;-84
2022/03/31 21:46:34;;;;;;;22.67;19.65;;;;;;;4.36;62.82;98200.84;10295916;28;20967;-84
2022/03/31 21:51:37;;;;;;;21.67;18.73;;;;;;;4.42;61.88;98188.38;10296629;28;20046;-84
2022/03/31 21:56:41;;;;;;;23.40;19.63;;;;;;;4.53;61.90;98204.06;10297233;28;20120;-84
2022/03/31 22:01:42;;;;;;;19.88;17.75;;;;;;;4.52;61.43;98214.50;10279537;28;20089;-84
2022/03/31 22:06:45;;;;;;;20.95;18.52;;;;;;;4.45;61.65;98210.66;10279611;28;20504;-84
2022/03/31 22:11:52;;;;;;;21.70;19.40;;;;;;;4.34;61.69;98216.50;10296456;28;20133;-84
2022/03/31 22:17:21;;;;;;;19.42;17.42;;;;;;;3.91;61.79;98217.44;10298105;28;20109;-84
2022/03/31 22:22:23;;;;;;;19.45;17.35;;;;;;;4.00;62.01;98216.88;10292706;28;20118;-84
2022/03/31 22:27:24;;;;;;;18.00;16.13;;;;;;;3.80;61.82;98212.84;10298520;28;20058;-84
2022/03/31 22:32:26;;;;;;;18.52;16.52;;;;;;;3.99;61.34;98212.63;10291149;28;20770;-83
2022/03/31 22:37:28;;;;;;;19.52;17.42;;;;;;;3.90;61.49;98217.53;10295431;28;20172;-84
2022/03/31 22:42:30;;;;;;;18.35;16.55;;;;;;;3.75;61.20;98219.22;10295746;28;20113;-84
2022/03/31 22:47:34;;;;;;;19.08;17.08;;;;;;;3.71;61.82;98228.09;10292890;28;20539;-84
2022/03/31 22:52:36;;;;;;;19.40;17.25;;;;;;;3.86;61.46;98222.06;10294022;28;20050;-84
2022/03/31 22:57:38;;;;;;;18.08;16.17;;;;;;;4.00;61.17;98224.66;10296028;28;20042;-84
2022/03/31 23:02:40;;;;;;;21.25;17.58;;;;;;;3.95;60.90;98221.50;10296672;28;20086;-84
2022/03/31 23:07:42;;;;;;;19.77;17.67;;;;;;;3.88;61.17;98216.78;10295649;28;20086;-84
2022/03/31 23:12:49;;;;;;;19.48;17.48;;;;;;;3.88;61.51;98216.78;10294059;28;20046;-84
2022/03/31 23:17:51;;;;;;;18.45;16.55;;;;;;;3.75;61.21;98209.72;10295725;28;20098;-84
2022/03/31 23:22:56;;;;;;;17.35;15.52;;;;;;;3.58;61.28;98196.13;10291281;28;20129;-84
2022/03/31 23:27:58;;;;;;;18.15;16.25;;;;;;;3.60;61.21;98199.47;10276404;28;20054;-84
2022/03/31 23:33:00;;;;;;;16.98;15.23;;;;;;;3.58;60.93;98211.63;10294322;28;20105;-84
2022/03/31 23:38:03;;;;;;;16.92;15.23;;;;;;;3.61;60.74;98211.47;10294422;28;20097;-84
2022/03/31 23:43:06;;;;;;;17.35;15.55;;;;;;;3.56;60.89;98208.31;10292861;28;20109;-84